• Join FlightAware (Why Join?)
  • Login
  • US Flag 
10:36PM EDT


 

Airport Tracker/Info


-or-


 

Live Flight TrackerFlight Track Log ✈ N885WT ✈ 13-May-2013 ✈ KCRQ - KMMU

Flight Track Log - Related Links

Times and Time Zones

All times are in EDT time to prevent confusion due to time zone crossing. See the N885WT flight status page for this flight to view local times or setup timezone preferences in your user account.

Time Position Orientation Groundspeed Altitude Reporting Facility
EDT Latitude Longitude Course Direction KTS MPH feet Rate Location/Type
09:35AM 33.1242 -117.3144 260° West 190 219 1,800  Level Los Angeles Center
09:35AM 33.1167 -117.3667 260° West 207 238 3,400 2,640 Climbing Southern California TRACON
09:36AM 33.1667 -117.3833 344° North 274 315 5,600 2,940 Climbing Southern California TRACON
09:38AM 33.2369 -117.2589 56° Northeast 287 330 10,900 2,700 Climbing Los Angeles Center
09:39AM 33.2769 -117.1611 64° Northeast 330 380 12,800 2,160 Climbing Los Angeles Center
09:40AM 33.3133 -117.0608 67° East 362 417 15,400 2,700 Climbing Los Angeles Center
09:41AM 33.3547 -116.9444 67° East 374 430 18,400 2,700 Climbing Los Angeles Center
09:42AM 33.3958 -116.8261 67° East 383 441 20,900 2,460 Climbing Los Angeles Center
09:43AM 33.4381 -116.7058 67° East 389 448 23,500 2,580 Climbing Los Angeles Center
09:44AM 33.4914 -116.5561 67° East 402 463 26,300 2,340 Climbing Los Angeles Center
09:45AM 33.5358 -116.4250 68° East 417 480 28,300 1,800 Climbing Los Angeles Center
09:46AM 33.5839 -116.2894 67° East 435 501 30,000 1,680 Climbing Los Angeles Center
09:47AM 33.6308 -116.1483 68° East 452 520 31,800 1,800 Climbing Los Angeles Center
09:48AM 33.6778 -116.0064 68° East 454 522 33,800 1,560 Climbing Los Angeles Center
09:49AM 33.7244 -115.8686 68° East 448 516 35,000 540 Climbing Los Angeles Center
09:50AM 33.7817 -115.7386 62° Northeast 441 507 35,000 60 Level Los Angeles Center
09:51AM 33.8389 -115.6064 62° Northeast 444 511 35,200 840 Climbing Los Angeles Center
09:52AM 33.8839 -115.5022 62° Northeast 442 509 36,800 1,500 Climbing Los Angeles Center
09:54AM 33.9503 -115.3478 63° Northeast 434 499 38,600 900 Climbing Los Angeles Center
09:55AM 34.0275 -115.1711 62° Northeast 427 491 39,100 840 Climbing Los Angeles Center
09:56AM 34.0925 -115.0214 62° Northeast 420 483 40,600 1,140 Climbing Los Angeles Center
09:57AM 34.1469 -114.8958 62° Northeast 420 483 41,500 720 Climbing Los Angeles Center
09:58AM 34.1900 -114.7953 63° Northeast 423 487 42,100 780 Climbing Los Angeles Center
09:59AM 34.2553 -114.6425 63° Northeast 425 489 43,100 720 Climbing Los Angeles Center
10:01AM 34.3611 -114.3906 63° Northeast 427 491 44,400 600 Climbing Albuquerque Center
10:02AM 34.4147 -114.2647 63° Northeast 425 489 44,900 240 Climbing Albuquerque Center
10:03AM 34.4681 -114.1386 63° Northeast 423 487 45,000  Climbing Albuquerque Center
10:04AM 34.5317 -113.9869 63° Northeast 422 486 45,000  Level Albuquerque Center
10:05AM 34.5839 -113.8597 63° Northeast 421 484 45,000  Level Albuquerque Center
10:06AM 34.6367 -113.7336 63° Northeast 421 484 45,000  Level Albuquerque Center
10:07AM 34.6842 -113.6181 63° Northeast 420 483 45,000  Level Albuquerque Center
10:09AM 34.7986 -113.3397 63° Northeast 421 484 45,000  Level Albuquerque Center
10:10AM 34.8489 -113.2125 64° Northeast 421 484 45,000  Level Albuquerque Center
10:11AM 34.9008 -113.0858 63° Northeast 421 484 45,000  Level Albuquerque Center
10:12AM 34.9514 -112.9594 64° Northeast 421 484 45,000  Level Albuquerque Center
10:13AM 35.0036 -112.8328 63° Northeast 423 487 45,000  Level Albuquerque Center
10:14AM 35.0539 -112.7053 64° Northeast 423 487 45,000  Level Albuquerque Center
10:15AM 35.1153 -112.5522 64° Northeast 425 489 45,000  Level Albuquerque Center
10:16AM 35.1658 -112.4242 64° Northeast 424 488 45,000  Level Albuquerque Center
10:17AM 35.2169 -112.2961 64° Northeast 424 488 45,000  Level Albuquerque Center
10:18AM 35.2681 -112.1669 64° Northeast 424 488 45,000  Level Albuquerque Center
10:19AM 35.3200 -112.0381 64° Northeast 426 490 45,000  Level Albuquerque Center
10:20AM 35.3711 -111.9094 64° Northeast 425 489 45,000  Level Albuquerque Center
10:21AM 35.4311 -111.7547 65° Northeast 423 487 45,000  Level Albuquerque Center
10:22AM 35.4803 -111.6239 65° Northeast 425 489 45,000  Level Albuquerque Center
10:23AM 35.5317 -111.4928 64° Northeast 428 493 45,000  Level Albuquerque Center
10:24AM 35.5856 -111.3531 65° Northeast 428 493 45,000  Level Albuquerque Center
10:25AM 35.6358 -111.2267 64° Northeast 430 495 45,000  Level Albuquerque Center
10:26AM 35.6903 -111.0789 66° East 427 491 45,000  Level Albuquerque Center
10:27AM 35.7375 -110.9528 65° Northeast 423 487 45,000  Level Albuquerque Center
10:28AM 35.7944 -110.8050 65° Northeast 426 490 45,000  Level Albuquerque Center
10:30AM 35.8419 -110.6794 65° Northeast 425 489 45,000  Level Albuquerque Center
10:31AM 35.8919 -110.5506 64° Northeast 427 491 45,000  Level Denver Center
10:32AM 35.9503 -110.3917 66° East 427 491 45,000  Level Denver Center
10:33AM 36.0006 -110.2578 65° Northeast 429 494 45,000  Level Denver Center
10:34AM 36.0506 -110.1242 65° Northeast 430 495 45,000  Level Denver Center
10:35AM 36.0969 -109.9964 66° East 431 496 45,000  Level Denver Center
10:36AM 36.1528 -109.8458 65° Northeast 431 496 45,000  Level Denver Center
10:37AM 36.1997 -109.7172 66° East 431 496 45,000  Level Denver Center
10:38AM 36.2556 -109.5656 65° Northeast 432 497 45,000  Level Denver Center
10:39AM 36.3031 -109.4347 66° East 433 498 45,000  Level Denver Center
10:40AM 36.3592 -109.2814 66° East 434 499 45,000  Level Denver Center
10:41AM 36.4067 -109.1497 66° East 433 498 45,000  Level Denver Center
10:42AM 36.4617 -108.9947 66° East 435 501 45,000  Level Denver Center
10:43AM 36.5081 -108.8628 66° East 433 498 45,000  Level Denver Center
10:44AM 36.5550 -108.7294 66° East 436 502 45,000  Level Denver Center
10:45AM 36.6094 -108.5756 66° East 434 499 45,000  Level Denver Center
10:46AM 36.6553 -108.4428 67° East 434 499 45,000  Level Denver Center
10:47AM 36.7094 -108.2892 66° East 433 498 45,000  Level Denver Center
10:48AM 36.7558 -108.1553 67° East 438 504 45,000  Level Denver Center
10:49AM 36.8092 -108.0006 67° East 434 499 45,000  Level Denver Center
10:50AM 36.8553 -107.8669 67° East 436 502 45,000  Level Denver Center
10:51AM 36.9014 -107.7325 67° East 441 507 45,000  Level Denver Center
10:52AM 36.9556 -107.5756 67° East 442 509 45,000  Level Denver Center
10:53AM 37.0008 -107.4439 67° East 435 501 45,000  Level Denver Center
10:54AM 37.0544 -107.2861 67° East 438 504 45,000  Level Denver Center
10:55AM 37.0997 -107.1508 67° East 440 506 45,000  Level Denver Center
10:56AM 37.1522 -106.9922 67° East 440 506 45,000  Level Denver Center
10:57AM 37.1983 -106.8569 67° East 440 506 45,000  Level Denver Center
10:59AM 37.2514 -106.7019 67° East 434 499 45,000  Level Denver Center
11:00AM 37.2950 -106.5647 68° East 437 503 45,000  Level Denver Center
11:01AM 37.3478 -106.4072 67° East 438 504 45,000  Level Denver Center
11:02AM 37.3908 -106.2711 68° East 438 504 45,000  Level Denver Center
11:03AM 37.4422 -106.1119 68° East 439 505 45,000  Level Denver Center
11:04AM 37.4864 -105.9758 68° East 439 505 45,000  Level Denver Center
11:05AM 37.5369 -105.8150 68° East 441 507 45,000  Level Denver Center
11:06AM 37.5825 -105.6781 67° East 442 509 45,000  Level Denver Center
11:07AM 37.6258 -105.5403 68° East 442 509 45,000  Level Denver Center
11:08AM 37.6758 -105.3811 68° East 438 504 45,000  Level Denver Center
11:09AM 37.7197 -105.2431 68° East 440 506 45,000  Level Denver Center
11:10AM 37.7711 -105.0800 68° East 446 513 45,000  Level Denver Center
11:11AM 37.8136 -104.9417 69° East 442 509 45,000  Level Denver Center
11:12AM 37.8642 -104.7800 68° East 441 507 45,000  Level Denver Center
11:13AM 37.9078 -104.6431 68° East 437 503 45,000  Level Denver Center
11:14AM 37.9567 -104.4797 69° East 441 507 45,000  Level Denver Center
11:15AM 37.9994 -104.3394 69° East 444 511 45,000  Level Denver Center
11:16AM 38.0417 -104.1997 69° East 441 507 45,000  Level Denver Center
11:17AM 38.0911 -104.0353 69° East 444 511 45,000  Level Denver Center
11:18AM 38.1344 -103.8942 69° East 445 512 45,000  Level Denver Center
11:19AM 38.1833 -103.7281 69° East 448 516 45,000  Level Denver Center
11:20AM 38.2244 -103.5864 70° East 446 513 45,000  Level Denver Center
11:21AM 38.2744 -103.4194 69° East 449 517 45,000  Level Denver Center
11:22AM 38.3172 -103.2725 70° East 451 519 45,000  Level Denver Center
11:23AM 38.3586 -103.1306 70° East 448 516 45,000  Level Denver Center
11:24AM 38.4067 -102.9631 70° East 449 517 45,000  Level Denver Center
11:25AM 38.4478 -102.8197 70° East 449 517 45,000  Level Denver Center
11:27AM 38.5047 -102.6250 69° East 459 528 45,000  Level Denver Center
11:28AM 38.5467 -102.4783 70° East 459 528 45,000  Level Denver Center
11:29AM 38.5939 -102.3067 71° East 459 528 45,000  Level Denver Center
11:30AM 38.6361 -102.1608 70° East 457 526 45,000  Level Denver Center
11:31AM 38.6844 -101.9892 70° East 459 528 45,000  Level Denver Center
11:32AM 38.7242 -101.8417 71° East 458 527 45,000  Level Denver Center
11:33AM 38.7725 -101.6683 70° East 462 532 45,000  Level Denver Center
11:34AM 38.8147 -101.5200 70° East 463 533 45,000  Level Denver Center
11:35AM 38.8619 -101.3464 71° East 461 531 45,000  Level Denver Center
11:36AM 38.9014 -101.1975 71° East 460 529 45,000  Level Denver Center
11:37AM 38.9475 -101.0258 71° East 455 524 45,000  Level Denver Center
11:38AM 38.9883 -100.8783 70° East 456 525 45,000  Level Denver Center
11:39AM 39.0328 -100.7117 71° East 455 524 45,000  Level Denver Center
11:40AM 39.0714 -100.5633 71° East 458 527 45,000  Level Denver Center
11:41AM 39.1167 -100.3919 71° East 455 524 45,000  Level Denver Center
11:42AM 39.1544 -100.2436 72° East 455 524 45,000  Level Denver Center
11:43AM 39.1986 -100.0728 72° East 452 520 45,000  Level Denver Center
11:44AM 39.2361 -99.9267 72° East 451 519 45,000  Level Denver Center
11:45AM 39.2808 -99.7556 71° East 451 519 45,000  Level Denver Center
11:46AM 39.3192 -99.6042 72° East 462 532 45,000  Level Denver Center
11:47AM 39.3625 -99.4289 72° East 461 531 45,000  Level Denver Center
11:48AM 39.4006 -99.2783 72° East 460 529 45,000  Level Denver Center
11:49AM 39.4444 -99.1053 72° East 456 525 45,000  Level Denver Center
11:50AM 39.4778 -98.9689 72° East 458 527 45,000  Level Denver Center
11:51AM 39.5244 -98.7808 72° East 458 527 45,000  Level Denver Center
11:52AM 39.5622 -98.6242 73° East 457 526 45,000  Level Denver Center
11:54AM 39.6003 -98.4686 72° East 455 524 45,000  Level Denver Center
11:55AM 39.6383 -98.3117 72° East 456 525 45,000  Level Denver Center
11:56AM 39.6756 -98.1547 73° East 458 527 45,000  Level Minneapolis Center
11:57AM 39.7206 -97.9628 73° East 462 532 45,000  Level Minneapolis Center
11:58AM 39.7583 -97.8036 73° East 463 533 45,000  Level Minneapolis Center
11:59AM 39.7964 -97.6422 73° East 465 535 45,000  Level Minneapolis Center
12:00PM 39.8342 -97.4814 73° East 467 537 45,000  Level Minneapolis Center
12:01PM 39.8714 -97.3203 73° East 466 536 45,000  Level Minneapolis Center
12:02PM 39.9075 -97.1614 73° East 469 540 45,000  Level Minneapolis Center
12:03PM 39.9444 -96.9964 74° East 472 543 45,000  Level Minneapolis Center
12:04PM 39.9897 -96.7969 73° East 478 550 45,000  Level Minneapolis Center
12:05PM 40.0197 -96.6653 73° East 477 549 45,000  Level Minneapolis Center
12:06PM 40.0636 -96.4667 74° East 477 549 45,000  Level Minneapolis Center
12:07PM 40.1011 -96.3008 73° East 478 550 45,000  Level Minneapolis Center
12:08PM 40.1361 -96.1350 75° East 476 548 45,000  Level Minneapolis Center
12:09PM 40.1739 -95.9686 73° East 479 551 45,000  Level Minneapolis Center
12:10PM 40.2169 -95.7647 74° East 484 557 45,000  Level Minneapolis Center
12:11PM 40.2528 -95.5989 74° East 479 551 45,000  Level Minneapolis Center
12:12PM 40.2883 -95.4328 74° East 477 549 45,000  Level Minneapolis Center
12:13PM 40.3233 -95.2642 75° East 479 551 45,000  Level Minneapolis Center
12:14PM 40.3586 -95.0961 75° East 479 551 45,000  Level Minneapolis Center
12:15PM 40.3944 -94.9272 74° East 481 554 45,000  Level Minneapolis Center
12:16PM 40.4286 -94.7586 75° East 480 552 45,000  Level Minneapolis Center
12:17PM 40.4714 -94.5547 75° East 484 557 45,000  Level Minneapolis Center
12:18PM 40.4997 -94.4075 76° East 480 552 45,000  Level Minneapolis Center
12:19PM 40.5336 -94.2389 75° East 481 554 45,000  Level Minneapolis Center
12:20PM 40.5742 -94.0353 75° East 482 555 45,000  Level Minneapolis Center
12:21PM 40.6078 -93.8642 75° East 483 556 45,000  Level Minneapolis Center
12:22PM 40.6408 -93.6961 75° East 479 551 45,000  Level Minneapolis Center
12:23PM 40.6725 -93.5272 76° East 480 552 45,000  Level Minneapolis Center
12:24PM 40.7047 -93.3592 76° East 476 548 45,000  Level Minneapolis Center
12:25PM 40.7333 -93.1864 78° East 481 554 45,000  Level Minneapolis Center
12:26PM 40.7694 -92.9769 77° East 486 559 45,000  Level Minneapolis Center
12:28PM 40.7975 -92.8047 78° East 479 551 45,000  Level Chicago Center
12:29PM 40.8253 -92.6344 78° East 475 547 45,000  Level Chicago Center
12:30PM 40.8581 -92.4281 78° East 478 550 45,000  Level Chicago Center
12:31PM 40.8858 -92.2581 78° East 476 548 45,000  Level Chicago Center
12:32PM 40.9122 -92.0875 78° East 474 545 45,000  Level Chicago Center
12:33PM 40.9394 -91.9181 78° East 474 545 45,000  Level Chicago Center
12:34PM 40.9656 -91.7458 79° East 478 550 45,000  Level Chicago Center
12:35PM 40.9931 -91.5614 79° East 482 555 45,000  Level Chicago Center
12:36PM 41.0197 -91.3883 78° East 481 554 45,000  Level Chicago Center
12:37PM 41.0478 -91.2161 78° East 479 551 45,000  Level Chicago Center
12:38PM 41.0789 -91.0039 79° East 485 558 45,000  Level Chicago Center
12:39PM 41.1033 -90.8286 79° East 484 557 45,000  Level Chicago Center
12:40PM 41.1286 -90.6514 79° East 487 560 45,000  Level Chicago Center
12:41PM 41.1550 -90.4744 79° East 486 559 45,000  Level Chicago Center
12:42PM 41.1794 -90.2967 80° East 488 562 45,000  Level Chicago Center
12:43PM 41.2047 -90.1211 79° East 483 556 45,000  Level Chicago Center
12:44PM 41.2306 -89.9394 79° East 495 570 45,000  Level Chicago Center
12:45PM 41.2544 -89.7575 80° East 497 572 45,000  Level Chicago Center
12:46PM 41.2850 -89.5383 79° East 498 573 45,000  Level Chicago Center
12:47PM 41.3078 -89.3592 80° East 488 562 45,000  Level Chicago Center
12:48PM 41.3317 -89.1811 80° East 488 562 45,000  Level Chicago Center
12:49PM 41.3569 -88.9853 80° East 491 565 45,000  Level Chicago Center
12:50PM 41.3792 -88.8067 81° East 492 566 45,000  Level Chicago Center
12:51PM 41.4022 -88.6286 80° East 491 565 45,000  Level Chicago Center
12:52PM 41.4236 -88.4489 81° East 491 565 45,000  Level Chicago Center
12:53PM 41.4461 -88.2703 80° East 488 562 45,000  Level Chicago Center
12:55PM 41.4714 -88.0678 80° East 492 566 45,000  Level Chicago Center
12:56PM 41.4936 -87.8872 81° East 493 567 45,000  Level Chicago Center
12:57PM 41.5169 -87.6803 81° East 496 571 45,000  Level Chicago Center
12:58PM 41.5369 -87.4983 82° East 500 575 45,000  Level Chicago Center
12:59PM 41.5589 -87.3142 81° East 503 579 45,000  Level Chicago Center
01:00PM 41.5789 -87.1297 82° East 504 580 45,000  Level Chicago Center
01:01PM 41.5992 -86.9450 82° East 504 580 45,000  Level Chicago Center
01:02PM 41.6200 -86.7617 81° East 502 578 45,000  Level Chicago Center
01:03PM 41.6419 -86.5536 82° East 504 580 45,000  Level Chicago Center
01:04PM 41.6614 -86.3689 82° East 504 580 45,000  Level Chicago Center
01:05PM 41.6811 -86.1850 82° East 501 577 45,000  Level Chicago Center
01:06PM 41.6983 -85.9989 83° East 504 580 45,000  Level Chicago Center
01:07PM 41.7217 -85.7775 82° East 503 579 45,000  Level Chicago Center
01:08PM 41.7417 -85.5875 82° East 508 585 45,000  Level Chicago Center
01:09PM 41.7575 -85.4172 83° East 500 575 45,000  Level Chicago Center
01:10PM 41.7786 -85.2025 82° East 506 582 45,000  Level Chicago Center
01:11PM 41.7928 -85.0761 81° East 509 586 45,000  Level Cleveland Center
01:12PM 41.8081 -84.8906 84° East 509 586 45,000  Level Cleveland Center
01:13PM 41.8256 -84.7019 83° East 509 586 45,000  Level Cleveland Center
01:14PM 41.8425 -84.5108 83° East 504 580 45,000  Level Cleveland Center
01:15PM 41.8572 -84.3275 84° East 504 580 45,000  Level Cleveland Center
01:16PM 41.8689 -84.1581 85° East 504 580 45,000  Level Cleveland Center
01:17PM 41.8850 -83.9664 83° East 504 580 45,000  Level Cleveland Center
01:18PM 41.9008 -83.7803 83° East 504 580 45,000  Level Cleveland Center
01:19PM 41.9169 -83.5719 84° East 499 574 45,000  Level Cleveland Center
01:20PM 41.9317 -83.4022 83° East 499 574 45,000  Level Cleveland Center
01:21PM 41.9489 -83.1992 83° East 499 574 45,000  Level Cleveland Center
01:22PM 41.9614 -83.0097 85° East 499 574 45,000  Level Cleveland Center
01:23PM 41.9756 -82.8206 84° East 499 574 45,000  Level Cleveland Center
01:24PM 41.9897 -82.6308 84° East 504 580 45,000  Level Cleveland Center
01:25PM 42.0033 -82.4442 84° East 504 580 45,000  Level Cleveland Center
01:26PM 42.0208 -82.2517 83° East 504 580 45,000  Level Cleveland Center
01:27PM 42.0297 -82.0647 86° East 504 580 45,000  Level Cleveland Center
01:28PM 42.0422 -81.8775 85° East 504 580 45,000  Level Cleveland Center
01:29PM 42.0525 -81.7072 85° East 497 572 45,000  Level Cleveland Center
01:30PM 42.0644 -81.5200 85° East 502 578 45,000  Level Cleveland Center
01:31PM 42.0742 -81.3244 86° East 502 578 45,000  Level Cleveland Center
01:32PM 42.0878 -81.1344 84° East 510 587 45,000  Level Cleveland Center
01:33PM 42.0825 -80.9442 92° East 510 587 45,000  Level Cleveland Center
01:34PM 42.0683 -80.7286 95° East 518 596 45,000  Level Cleveland Center
01:35PM 42.0517 -80.5300 96° East 524 603 45,000  Level Cleveland Center
01:36PM 42.0369 -80.3344 96° East 524 603 45,000  Level Cleveland Center
01:37PM 42.0194 -80.1389 97° East 524 603 45,000  Level Cleveland Center
01:38PM 42.0061 -79.9433 95° East 524 603 45,000  Level Cleveland Center
01:39PM 41.9903 -79.7478 96° East 519 597 45,000  Level Cleveland Center
01:40PM 41.9742 -79.5525 96° East 519 597 45,000  Level Cleveland Center
01:41PM 41.9575 -79.3547 96° East 524 603 45,000  Level Cleveland Center
01:42PM 41.9408 -79.1567 96° East 524 603 45,000  Level Cleveland Center
01:43PM 41.9242 -78.9981 98° East 529 609 45,000  Level Cleveland Center
01:44PM 41.9017 -78.7614 97° East 529 609 45,000 -420 Level Cleveland Center
01:45PM 41.8861 -78.5639 96° East 529 609 44,200 -1,380 Descending Cleveland Center
01:46PM 41.8658 -78.3719 98° East 529 609 42,300 -1,800 Descending Cleveland Center
01:47PM 41.8375 -78.0569 97° East 506 582 39,300 -1,740 Descending New York Center
01:48PM 41.8181 -77.8625 98° East 513 590 37,600 -1,680 Descending New York Center
01:49PM 41.7981 -77.6711 98° East 518 596 36,100 -1,140 Descending New York Center
01:50PM 41.7672 -77.4817 102° East 518 596 35,400 -720 Descending New York Center
01:51PM 41.7189 -77.2989 109° East 518 596 34,700 -1,200 Descending New York Center
01:52PM 41.6703 -77.1192 110° East 518 596 33,100 -1,680 Descending New York Center
01:53PM 41.6197 -76.9367 110° East 513 590 31,400 -1,680 Descending New York Center
01:54PM 41.5722 -76.7631 110° East 513 590 29,800 -1,800 Descending New York Center
01:55PM 41.5211 -76.5783 110° East 496 571 28,000 -1,740 Descending New York Center
01:56PM 41.4767 -76.4167 110° East 477 549 26,400 -1,620 Descending New York Center
01:57PM 41.4300 -76.2578 111° Southeast 467 537 24,800 -1,500 Descending New York Center
01:58PM 41.3964 -76.1306 109° East 461 531 23,400 -1,740 Descending New York Center
01:59PM 41.3514 -75.9722 111° Southeast 438 504 21,400 -1,920 Descending New York Center
02:00PM 41.3117 -75.8311 111° Southeast 412 474 19,700 -1,740 Descending New York Center
02:01PM 41.2717 -75.6900 111° Southeast 412 474 18,000 -2,040 Descending New York Center
02:02PM 41.2311 -75.5631 113° Southeast 391 450 15,600 -2,220 Descending New York Center
02:03PM 41.1900 -75.4414 114° Southeast 372 428 13,600 -2,100 Descending New York Center
02:04PM 41.1492 -75.3147 113° Southeast 340 391 11,500 -1,800 Descending New York Center
02:05PM 41.1136 -75.2103 114° Southeast 320 368 10,000 -1,680 Descending New York Center
02:06PM 41.0797 -75.1119 115° Southeast 303 349 8,200 -1,740 Descending New York Center
02:07PM 41.0494 -75.0247 115° Southeast 292 336 6,600 -1,140 Descending New York Center
02:08PM 41.0136 -74.9206 114° Southeast 286 329 6,000 -360 Descending New York Center
02:09PM 41.0019 -74.8431 101° East 250 288 5,900 -660 Descending New York Center
02:10PM 40.9969 -74.7436 94° East 245 282 4,700 -1,440 Descending New York Center
02:11PM 40.9892 -74.6581 97° East 251 289 3,100 -900 Descending New York Center
02:12PM 40.9819 -74.5614 96° East 251 289 3,000 -60 Descending New York Center
02:13PM 40.9761 -74.4869 96° East 236 272 3,000  Level New York Center
02:14PM 40.9725 -74.3961 93° East 225 259 3,000 -240 Level New York Center
02:15PM 40.9667 -74.3500 99° East 218 251 2,700 -660 Descending New York TRACON
02:16PM 40.9500 -74.2833 108° East 193 222 2,000 -300 Descending New York TRACON
02:17PM 40.9000 -74.3167 207° Southwest 153 176 2,100 -60 Climbing New York TRACON
02:18PM 40.8667 -74.3333 201° Southwest 124 143 1,900 -480 Descending New York TRACON
02:19PM 40.8500 -74.3667 237° Southwest 122 140 1,200 -480 Descending New York TRACON
02:20PM 40.8167 -74.4000 217° Southwest 129 148 1,000 -240 Descending New York TRACON
02:22PM 40.7993 -74.4149 155° Southeast  Level Estimated
02:29PM 40.7993 -74.4149 155° Southeast  Level Estimated